createdAt,value
2023-04-29T00:00:22.630Z,43.63
2023-04-29T00:10:24.029Z,43.42
2023-04-29T00:20:25.556Z,43.40
2023-04-29T00:30:27.085Z,43.35
2023-04-29T00:40:28.917Z,43.31
2023-04-29T00:50:30.748Z,43.31
2023-04-29T01:00:32.452Z,43.36
2023-04-29T01:10:44.690Z,43.33
2023-04-29T01:20:46.672Z,43.31
2023-04-29T01:31:00.775Z,43.38
2023-04-29T01:41:15.194Z,43.47
2023-04-29T01:51:16.748Z,43.54
2023-04-29T02:01:18.372Z,43.57
2023-04-29T02:21:36.481Z,43.57
2023-04-29T02:31:38.119Z,43.62
2023-04-29T02:41:39.618Z,43.49
2023-04-29T02:51:41.326Z,43.45
2023-04-29T03:01:43.402Z,43.54
2023-04-29T03:11:45.129Z,43.51
2023-04-29T03:21:46.585Z,43.45
2023-04-29T03:31:48.226Z,43.53
2023-04-29T03:41:49.766Z,43.50
2023-04-29T03:51:51.370Z,43.57
2023-04-29T04:01:54.105Z,43.58
2023-04-29T04:11:55.551Z,43.55
2023-04-29T04:21:57.183Z,43.62
2023-04-29T04:31:58.662Z,43.21
2023-04-29T04:42:00.126Z,42.87
2023-04-29T04:52:01.669Z,42.67
2023-04-29T05:02:03.083Z,42.59
2023-04-29T05:12:04.658Z,42.61
2023-04-29T05:22:06.033Z,42.84
2023-04-29T05:32:07.933Z,43.14
2023-04-29T05:42:09.311Z,43.25
2023-04-29T05:52:10.896Z,43.23
2023-04-29T06:02:12.559Z,43.12
2023-04-29T06:12:13.974Z,43.12
2023-04-29T06:22:15.368Z,43.03
2023-04-29T06:32:16.880Z,43.21
2023-04-29T06:42:18.278Z,42.86
2023-04-29T06:52:19.781Z,43.00
2023-04-29T07:02:21.242Z,42.92
2023-04-29T07:12:22.736Z,42.85
2023-04-29T07:22:24.117Z,42.92
2023-04-29T07:32:25.513Z,42.74
2023-04-29T07:42:26.912Z,42.75
2023-04-29T07:52:28.315Z,42.66
2023-04-29T08:02:29.817Z,42.59
2023-04-29T08:12:31.705Z,42.39
2023-04-29T08:22:33.584Z,42.28
2023-04-29T08:32:35.121Z,42.29
2023-04-29T08:42:37.163Z,42.26
2023-04-29T08:52:38.544Z,42.28
2023-04-29T09:02:53.923Z,42.26
2023-04-29T09:12:58.608Z,42.12
2023-04-29T09:23:04.361Z,42.36
2023-04-29T09:33:07.609Z,42.27
2023-04-29T09:43:16.674Z,42.02
2023-04-29T09:53:31.397Z,42.15
2023-04-29T10:03:37.448Z,42.06
2023-04-29T10:13:39.283Z,42.23
2023-04-29T10:23:40.691Z,42.13
2023-04-29T10:33:43.664Z,42.09
2023-04-29T10:43:45.223Z,42.08
2023-04-29T10:53:59.611Z,42.00
2023-04-29T11:04:04.987Z,41.96
2023-04-29T11:14:07.945Z,42.02
2023-04-29T11:24:09.342Z,41.83
2023-04-29T11:34:11.013Z,41.82
2023-04-29T11:44:12.592Z,41.77
2023-04-29T11:54:14.114Z,41.77
2023-04-29T12:04:16.313Z,41.78
2023-04-29T12:14:18.499Z,41.72
2023-04-29T12:24:21.244Z,41.42
2023-04-29T12:34:28.550Z,41.00
2023-04-29T12:44:37.288Z,41.02
2023-04-29T12:54:43.562Z,40.68
2023-04-29T13:04:45.792Z,40.75
2023-04-29T13:14:47.481Z,40.64
2023-04-29T13:24:49.077Z,40.61
2023-04-29T13:34:50.798Z,40.59
2023-04-29T13:44:53.677Z,40.59
2023-04-29T13:55:38.935Z,40.62
2023-04-29T14:05:16.871Z,40.69
2023-04-29T14:15:18.480Z,40.61
2023-04-29T14:25:20.031Z,40.63
2023-04-29T14:35:21.604Z,40.64
2023-04-29T14:45:22.977Z,40.55
2023-04-29T14:55:24.344Z,40.57
2023-04-29T15:05:25.710Z,40.46
2023-04-29T15:15:27.093Z,40.51
2023-04-29T15:25:28.490Z,40.43
2023-04-29T15:35:29.858Z,40.56
2023-04-29T15:45:31.553Z,40.42
2023-04-29T15:55:34.956Z,40.49
2023-04-29T16:05:37.839Z,40.67
2023-04-29T16:15:39.527Z,40.74
2023-04-29T16:25:41.719Z,40.87
2023-04-29T16:35:43.244Z,40.72
2023-04-29T16:45:44.765Z,40.71
2023-04-29T16:55:46.676Z,40.84
2023-04-29T17:05:48.541Z,40.86
2023-04-29T17:15:49.971Z,40.75
2023-04-29T17:25:51.499Z,40.85
2023-04-29T17:35:52.868Z,40.83
2023-04-29T17:45:54.609Z,40.88
2023-04-29T17:55:56.244Z,40.97
2023-04-29T18:05:57.664Z,41.11
2023-04-29T18:15:59.240Z,41.10
2023-04-29T18:26:00.622Z,41.33
2023-04-29T18:36:02.048Z,41.28
2023-04-29T18:46:03.754Z,41.38
2023-04-29T18:56:05.371Z,41.37
2023-04-29T19:06:06.773Z,41.52
2023-04-29T19:16:08.374Z,41.59
2023-04-29T19:26:09.817Z,41.56
2023-04-29T19:36:12.763Z,41.70
2023-04-29T19:46:14.677Z,41.76
2023-04-29T19:56:16.421Z,41.74
2023-04-29T20:06:17.886Z,41.89
2023-04-29T20:16:19.545Z,41.98
2023-04-29T20:26:21.142Z,41.86
2023-04-29T20:36:23.197Z,41.94
2023-04-29T20:46:26.047Z,42.03
2023-04-29T20:56:27.624Z,42.09
2023-04-29T21:06:29.064Z,42.25
2023-04-29T21:16:30.471Z,42.24
2023-04-29T21:26:32.084Z,42.33
2023-04-29T21:36:33.722Z,42.38
2023-04-29T21:46:35.439Z,42.54
2023-04-29T21:56:37.073Z,42.64
2023-04-29T22:06:38.722Z,42.71
2023-04-29T22:16:40.320Z,42.76
2023-04-29T22:26:41.803Z,42.82
2023-04-29T22:36:44.282Z,42.90
2023-04-29T22:46:45.918Z,42.90
2023-04-29T22:56:47.496Z,43.00
2023-04-29T23:06:48.870Z,43.05
2023-04-29T23:16:50.950Z,43.13
2023-04-29T23:26:52.474Z,43.19
2023-04-29T23:36:54.001Z,43.08
2023-04-29T23:46:55.464Z,42.99
2023-04-29T23:56:56.842Z,43.04
